sensor_id;sensor_type;location;lat;lon;timestamp;pressure;altitude;pressure_sealevel;temperature
42197;BMP280;27866;48.146;17.098;2023-04-06T00:03:37;99946.03;;;4.91
42197;BMP280;27866;48.146;17.098;2023-04-06T00:07:49;99942.94;;;4.84
42197;BMP280;27866;48.146;17.098;2023-04-06T00:12:00;99946.69;;;4.77
42197;BMP280;27866;48.146;17.098;2023-04-06T00:16:12;99947.56;;;4.76
42197;BMP280;27866;48.146;17.098;2023-04-06T00:20:23;99939.00;;;4.77
42197;BMP280;27866;48.146;17.098;2023-04-06T00:24:34;99935.81;;;4.72
42197;BMP280;27866;48.146;17.098;2023-04-06T00:28:46;99934.19;;;4.70
42197;BMP280;27866;48.146;17.098;2023-04-06T00:32:58;99929.91;;;4.70
42197;BMP280;27866;48.146;17.098;2023-04-06T00:37:11;99925.72;;;4.68
42197;BMP280;27866;48.146;17.098;2023-04-06T00:41:22;99924.88;;;4.67
42197;BMP280;27866;48.146;17.098;2023-04-06T00:45:34;99919.19;;;4.61
42197;BMP280;27866;48.146;17.098;2023-04-06T00:49:45;99925.47;;;4.54
42197;BMP280;27866;48.146;17.098;2023-04-06T00:53:56;99922.22;;;4.51
42197;BMP280;27866;48.146;17.098;2023-04-06T00:58:08;99915.16;;;4.56
42197;BMP280;27866;48.146;17.098;2023-04-06T01:02:29;99922.22;;;4.51
42197;BMP280;27866;48.146;17.098;2023-04-06T01:06:40;99916.19;;;4.52
42197;BMP280;27866;48.146;17.098;2023-04-06T01:10:52;99917.34;;;4.45
42197;BMP280;27866;48.146;17.098;2023-04-06T01:15:10;99921.63;;;4.45
42197;BMP280;27866;48.146;17.098;2023-04-06T01:19:25;99928.44;;;4.46
42197;BMP280;27866;48.146;17.098;2023-04-06T01:23:38;99923.06;;;4.51
42197;BMP280;27866;48.146;17.098;2023-04-06T01:27:50;99917.19;;;4.48
42197;BMP280;27866;48.146;17.098;2023-04-06T01:32:08;99917.28;;;4.47
42197;BMP280;27866;48.146;17.098;2023-04-06T01:36:29;99922.72;;;4.39
42197;BMP280;27866;48.146;17.098;2023-04-06T01:40:51;99910.53;;;4.44
42197;BMP280;27866;48.146;17.098;2023-04-06T01:45:05;99906.38;;;4.42
42197;BMP280;27866;48.146;17.098;2023-04-06T01:49:17;99917.66;;;4.38
42197;BMP280;27866;48.146;17.098;2023-04-06T01:53:33;99922.03;;;4.36
42197;BMP280;27866;48.146;17.098;2023-04-06T01:57:49;99913.63;;;4.33
42197;BMP280;27866;48.146;17.098;2023-04-06T02:02:13;99911.69;;;4.37
42197;BMP280;27866;48.146;17.098;2023-04-06T02:06:29;99906.81;;;4.32
42197;BMP280;27866;48.146;17.098;2023-04-06T02:10:41;99915.16;;;4.36
42197;BMP280;27866;48.146;17.098;2023-04-06T02:15:03;99899.59;;;4.41
42197;BMP280;27866;48.146;17.098;2023-04-06T02:19:14;99897.69;;;4.46
42197;BMP280;27866;48.146;17.098;2023-04-06T02:23:28;99895.13;;;4.46
42197;BMP280;27866;48.146;17.098;2023-04-06T02:27:41;99901.25;;;4.42
42197;BMP280;27866;48.146;17.098;2023-04-06T02:31:52;99897.84;;;4.41
42197;BMP280;27866;48.146;17.098;2023-04-06T02:36:05;99900.53;;;4.38
42197;BMP280;27866;48.146;17.098;2023-04-06T02:40:16;99903.88;;;4.40
42197;BMP280;27866;48.146;17.098;2023-04-06T02:44:27;99899.59;;;4.41
42197;BMP280;27866;48.146;17.098;2023-04-06T02:48:39;99897.09;;;4.39
42197;BMP280;27866;48.146;17.098;2023-04-06T02:52:52;99895.22;;;4.43
42197;BMP280;27866;48.146;17.098;2023-04-06T02:57:04;99902.97;;;4.41
42197;BMP280;27866;48.146;17.098;2023-04-06T03:01:23;99895.28;;;4.41
42197;BMP280;27866;48.146;17.098;2023-04-06T03:05:40;99900.44;;;4.41
42197;BMP280;27866;48.146;17.098;2023-04-06T03:09:52;99900.53;;;4.38
42197;BMP280;27866;48.146;17.098;2023-04-06T03:14:03;99897.19;;;4.36
42197;BMP280;27866;48.146;17.098;2023-04-06T03:18:15;99898.19;;;4.34
42197;BMP280;27866;48.146;17.098;2023-04-06T03:22:30;99901.63;;;4.33
42197;BMP280;27866;48.146;17.098;2023-04-06T03:26:42;99904.41;;;4.29
42197;BMP280;27866;48.146;17.098;2023-04-06T03:30:54;99903.03;;;4.20
42197;BMP280;27866;48.146;17.098;2023-04-06T03:35:24;99905.84;;;4.15
42197;BMP280;27866;48.146;17.098;2023-04-06T03:39:36;99906.00;;;4.12
42197;BMP280;27866;48.146;17.098;2023-04-06T03:43:48;99917.06;;;4.12
42197;BMP280;27866;48.146;17.098;2023-04-06T03:48:02;99916.34;;;4.09
42197;BMP280;27866;48.146;17.098;2023-04-06T03:52:18;99918.97;;;4.07
42197;BMP280;27866;48.146;17.098;2023-04-06T03:56:29;99913.19;;;4.03
42197;BMP280;27866;48.146;17.098;2023-04-06T04:00:40;99924.41;;;4.00
42197;BMP280;27866;48.146;17.098;2023-04-06T04:04:52;99919.31;;;3.99
42197;BMP280;27866;48.146;17.098;2023-04-06T04:09:03;99923.03;;;3.92
42197;BMP280;27866;48.146;17.098;2023-04-06T04:13:14;99918.84;;;3.91
42197;BMP280;27866;48.146;17.098;2023-04-06T04:17:31;99920.34;;;3.95
42197;BMP280;27866;48.146;17.098;2023-04-06T04:21:44;99914.59;;;3.90
42197;BMP280;27866;48.146;17.098;2023-04-06T04:26:03;99920.63;;;3.89
42197;BMP280;27866;48.146;17.098;2023-04-06T04:30:14;99910.63;;;3.83
42197;BMP280;27866;48.146;17.098;2023-04-06T04:34:27;99917.84;;;3.93
42197;BMP280;27866;48.146;17.098;2023-04-06T04:38:39;99919.94;;;4.05
42197;BMP280;27866;48.146;17.098;2023-04-06T04:42:51;99924.09;;;4.07
42197;BMP280;27866;48.146;17.098;2023-04-06T04:47:09;99918.03;;;4.10
42197;BMP280;27866;48.146;17.098;2023-04-06T04:51:28;99922.09;;;4.14
42197;BMP280;27866;48.146;17.098;2023-04-06T04:55:56;99925.16;;;4.23
42197;BMP280;27866;48.146;17.098;2023-04-06T05:00:08;99918.00;;;4.31
42197;BMP280;27866;48.146;17.098;2023-04-06T05:04:22;99917.72;;;4.36
42197;BMP280;27866;48.146;17.098;2023-04-06T05:08:36;99920.78;;;4.44
42197;BMP280;27866;48.146;17.098;2023-04-06T05:12:47;99923.06;;;4.51
42197;BMP280;27866;48.146;17.098;2023-04-06T05:16:59;99918.41;;;4.59
42197;BMP280;27866;48.146;17.098;2023-04-06T05:21:11;99923.53;;;4.78
42197;BMP280;27866;48.146;17.098;2023-04-06T05:25:35;99927.72;;;4.99
42197;BMP280;27866;48.146;17.098;2023-04-06T05:29:56;99923.81;;;5.10
42197;BMP280;27866;48.146;17.098;2023-04-06T05:34:10;99920.81;;;5.19
42197;BMP280;27866;48.146;17.098;2023-04-06T05:38:22;99930.13;;;5.39
42197;BMP280;27866;48.146;17.098;2023-04-06T05:42:39;99922.34;;;5.58
42197;BMP280;27866;48.146;17.098;2023-04-06T05:46:52;99925.00;;;5.75
42197;BMP280;27866;48.146;17.098;2023-04-06T05:51:03;99927.47;;;5.94
42197;BMP280;27866;48.146;17.098;2023-04-06T05:55:25;99932.56;;;6.12
42197;BMP280;27866;48.146;17.098;2023-04-06T05:59:48;99929.38;;;6.23
42197;BMP280;27866;48.146;17.098;2023-04-06T06:04:01;99934.66;;;6.38
42197;BMP280;27866;48.146;17.098;2023-04-06T06:08:16;99926.97;;;6.70
42197;BMP280;27866;48.146;17.098;2023-04-06T06:12:28;99922.66;;;8.52
42197;BMP280;27866;48.146;17.098;2023-04-06T06:16:41;99920.41;;;11.91
42197;BMP280;27866;48.146;17.098;2023-04-06T06:20:53;99900.78;;;14.47
42197;BMP280;27866;48.146;17.098;2023-04-06T06:25:05;99895.22;;;15.97
42197;BMP280;27866;48.146;17.098;2023-04-06T06:29:17;99887.25;;;17.54
42197;BMP280;27866;48.146;17.098;2023-04-06T06:33:28;99891.16;;;16.96
42197;BMP280;27866;48.146;17.098;2023-04-06T06:37:43;99887.56;;;16.79
42197;BMP280;27866;48.146;17.098;2023-04-06T06:41:58;99886.88;;;16.58
42197;BMP280;27866;48.146;17.098;2023-04-06T06:46:29;99893.28;;;15.99
42197;BMP280;27866;48.146;17.098;2023-04-06T06:50:41;99891.34;;;17.30
42197;BMP280;27866;48.146;17.098;2023-04-06T06:54:52;99883.06;;;17.69
42197;BMP280;27866;48.146;17.098;2023-04-06T06:59:05;99879.91;;;18.35
42197;BMP280;27866;48.146;17.098;2023-04-06T07:03:20;99886.66;;;19.87
42197;BMP280;27866;48.146;17.098;2023-04-06T07:07:35;99895.41;;;20.89
42197;BMP280;27866;48.146;17.098;2023-04-06T07:11:46;99878.81;;;21.28
42197;BMP280;27866;48.146;17.098;2023-04-06T07:15:57;99875.34;;;21.88
42197;BMP280;27866;48.146;17.098;2023-04-06T07:20:09;99875.28;;;22.84
42197;BMP280;27866;48.146;17.098;2023-04-06T07:24:20;99864.66;;;20.82
42197;BMP280;27866;48.146;17.098;2023-04-06T07:28:32;99876.75;;;14.93
42197;BMP280;27866;48.146;17.098;2023-04-06T07:32:45;99886.81;;;17.13
42197;BMP280;27866;48.146;17.098;2023-04-06T07:36:56;99876.16;;;19.55
42197;BMP280;27866;48.146;17.098;2023-04-06T07:41:10;99864.75;;;18.13
42197;BMP280;27866;48.146;17.098;2023-04-06T07:45:22;99879.44;;;14.52
42197;BMP280;27866;48.146;17.098;2023-04-06T07:49:35;99889.53;;;14.46
42197;BMP280;27866;48.146;17.098;2023-04-06T07:53:47;99879.31;;;17.81
42197;BMP280;27866;48.146;17.098;2023-04-06T07:57:59;99868.59;;;20.71
42197;BMP280;27866;48.146;17.098;2023-04-06T08:02:10;99858.38;;;19.49
42197;BMP280;27866;48.146;17.098;2023-04-06T08:06:22;99863.56;;;19.66
42197;BMP280;27866;48.146;17.098;2023-04-06T08:10:33;99868.41;;;15.95
42197;BMP280;27866;48.146;17.098;2023-04-06T08:14:45;99853.84;;;16.57
42197;BMP280;27866;48.146;17.098;2023-04-06T08:18:57;99858.84;;;17.32
42197;BMP280;27866;48.146;17.098;2023-04-06T08:23:08;99842.56;;;19.16
42197;BMP280;27866;48.146;17.098;2023-04-06T08:27:20;99840.88;;;17.37
42197;BMP280;27866;48.146;17.098;2023-04-06T08:31:31;99845.09;;;15.36
42197;BMP280;27866;48.146;17.098;2023-04-06T08:35:43;99825.53;;;16.62
42197;BMP280;27866;48.146;17.098;2023-04-06T08:39:54;99823.03;;;18.53
42197;BMP280;27866;48.146;17.098;2023-04-06T08:44:05;99831.22;;;18.91
42197;BMP280;27866;48.146;17.098;2023-04-06T08:48:17;99807.72;;;22.02
42197;BMP280;27866;48.146;17.098;2023-04-06T08:52:31;99815.97;;;23.92
42197;BMP280;27866;48.146;17.098;2023-04-06T08:56:43;99795.97;;;26.81
42197;BMP280;27866;48.146;17.098;2023-04-06T09:00:54;99809.00;;;26.44
42197;BMP280;27866;48.146;17.098;2023-04-06T09:05:07;99792.13;;;26.13
42197;BMP280;27866;48.146;17.098;2023-04-06T09:09:19;99796.31;;;24.49
42197;BMP280;27866;48.146;17.098;2023-04-06T09:13:31;99797.47;;;24.26
42197;BMP280;27866;48.146;17.098;2023-04-06T09:17:44;99780.81;;;24.12
42197;BMP280;27866;48.146;17.098;2023-04-06T09:22:05;99766.53;;;25.21
42197;BMP280;27866;48.146;17.098;2023-04-06T09:26:19;99774.00;;;25.05
42197;BMP280;27866;48.146;17.098;2023-04-06T09:30:31;99767.88;;;24.57
42197;BMP280;27866;48.146;17.098;2023-04-06T09:34:42;99767.31;;;25.48
42197;BMP280;27866;48.146;17.098;2023-04-06T09:38:56;99753.63;;;26.54
42197;BMP280;27866;48.146;17.098;2023-04-06T09:43:08;99747.94;;;25.47
42197;BMP280;27866;48.146;17.098;2023-04-06T09:47:21;99772.16;;;25.38
42197;BMP280;27866;48.146;17.098;2023-04-06T09:51:41;99750.00;;;25.13
42197;BMP280;27866;48.146;17.098;2023-04-06T09:55:59;99759.78;;;25.18
42197;BMP280;27866;48.146;17.098;2023-04-06T10:00:15;99741.41;;;25.89
42197;BMP280;27866;48.146;17.098;2023-04-06T10:04:58;99751.16;;;26.40
42197;BMP280;27866;48.146;17.098;2023-04-06T10:09:11;99737.72;;;25.84
42197;BMP280;27866;48.146;17.098;2023-04-06T10:13:25;99727.03;;;26.79
42197;BMP280;27866;48.146;17.098;2023-04-06T10:17:36;99726.31;;;25.89
42197;BMP280;27866;48.146;17.098;2023-04-06T10:21:52;99726.41;;;25.30
42197;BMP280;27866;48.146;17.098;2023-04-06T10:26:05;99728.41;;;23.39
42197;BMP280;27866;48.146;17.098;2023-04-06T10:30:23;99741.13;;;24.73
42197;BMP280;27866;48.146;17.098;2023-04-06T10:34:35;99731.81;;;25.42
42197;BMP280;27866;48.146;17.098;2023-04-06T10:38:47;99702.44;;;24.78
42197;BMP280;27866;48.146;17.098;2023-04-06T10:43:21;99694.19;;;24.94
42197;BMP280;27866;48.146;17.098;2023-04-06T10:47:40;99700.00;;;24.83
42197;BMP280;27866;48.146;17.098;2023-04-06T10:51:54;99684.09;;;24.50
42197;BMP280;27866;48.146;17.098;2023-04-06T10:56:10;99687.81;;;23.60
42197;BMP280;27866;48.146;17.098;2023-04-06T11:00:24;99678.41;;;23.92
42197;BMP280;27866;48.146;17.098;2023-04-06T11:04:35;99651.56;;;24.89
42197;BMP280;27866;48.146;17.098;2023-04-06T11:08:48;99666.53;;;23.68
42197;BMP280;27866;48.146;17.098;2023-04-06T11:13:00;99672.66;;;24.76
42197;BMP280;27866;48.146;17.098;2023-04-06T11:17:12;99660.19;;;22.72
42197;BMP280;27866;48.146;17.098;2023-04-06T11:21:38;99649.97;;;21.25
42197;BMP280;27866;48.146;17.098;2023-04-06T11:25:52;99668.81;;;21.06
42197;BMP280;27866;48.146;17.098;2023-04-06T11:30:05;99649.06;;;19.65
42197;BMP280;27866;48.146;17.098;2023-04-06T11:34:21;99646.28;;;19.51
42197;BMP280;27866;48.146;17.098;2023-04-06T11:38:33;99627.09;;;19.81
42197;BMP280;27866;48.146;17.098;2023-04-06T11:42:52;99637.75;;;19.57
42197;BMP280;27866;48.146;17.098;2023-04-06T11:47:07;99635.78;;;19.82
42197;BMP280;27866;48.146;17.098;2023-04-06T11:51:22;99618.53;;;20.26
42197;BMP280;27866;48.146;17.098;2023-04-06T11:55:38;99621.00;;;20.27
42197;BMP280;27866;48.146;17.098;2023-04-06T11:59:50;99617.91;;;19.93
42197;BMP280;27866;48.146;17.098;2023-04-06T12:04:01;99614.41;;;20.39
42197;BMP280;27866;48.146;17.098;2023-04-06T12:08:13;99611.66;;;22.09
42197;BMP280;27866;48.146;17.098;2023-04-06T12:12:24;99606.56;;;24.62
42197;BMP280;27866;48.146;17.098;2023-04-06T12:16:36;99600.56;;;25.90
42197;BMP280;27866;48.146;17.098;2023-04-06T12:20:47;99595.81;;;28.08
42197;BMP280;27866;48.146;17.098;2023-04-06T12:24:59;99578.31;;;29.46
42197;BMP280;27866;48.146;17.098;2023-04-06T12:29:10;99594.91;;;30.05
42197;BMP280;27866;48.146;17.098;2023-04-06T12:33:24;99577.75;;;29.44
42197;BMP280;27866;48.146;17.098;2023-04-06T12:37:35;99562.13;;;29.87
42197;BMP280;27866;48.146;17.098;2023-04-06T12:41:47;99566.19;;;29.33
42197;BMP280;27866;48.146;17.098;2023-04-06T12:45:59;99567.41;;;28.67
42197;BMP280;27866;48.146;17.098;2023-04-06T12:50:13;99571.28;;;30.31
42197;BMP280;27866;48.146;17.098;2023-04-06T12:54:24;99561.97;;;30.78
42197;BMP280;27866;48.146;17.098;2023-04-06T12:58:37;99549.78;;;30.48
42197;BMP280;27866;48.146;17.098;2023-04-06T13:02:49;99564.97;;;30.14
42197;BMP280;27866;48.146;17.098;2023-04-06T13:07:00;99552.91;;;30.34
42197;BMP280;27866;48.146;17.098;2023-04-06T13:11:12;99549.56;;;30.27
42197;BMP280;27866;48.146;17.098;2023-04-06T13:15:23;99565.72;;;29.93
42197;BMP280;27866;48.146;17.098;2023-04-06T13:19:34;99541.28;;;29.67
42197;BMP280;27866;48.146;17.098;2023-04-06T13:23:46;99533.72;;;30.93
42197;BMP280;27866;48.146;17.098;2023-04-06T13:27:57;99528.78;;;31.01
42197;BMP280;27866;48.146;17.098;2023-04-06T13:32:09;99526.63;;;30.09
42197;BMP280;27866;48.146;17.098;2023-04-06T13:36:21;99518.69;;;29.52
42197;BMP280;27866;48.146;17.098;2023-04-06T13:40:33;99515.44;;;29.50
42197;BMP280;27866;48.146;17.098;2023-04-06T13:44:44;99508.94;;;29.86
42197;BMP280;27866;48.146;17.098;2023-04-06T13:48:57;99512.63;;;28.47
42197;BMP280;27866;48.146;17.098;2023-04-06T13:53:09;99497.31;;;27.78
42197;BMP280;27866;48.146;17.098;2023-04-06T13:57:20;99502.13;;;26.97
42197;BMP280;27866;48.146;17.098;2023-04-06T14:01:32;99509.41;;;25.08
42197;BMP280;27866;48.146;17.098;2023-04-06T14:05:43;99521.44;;;23.59
42197;BMP280;27866;48.146;17.098;2023-04-06T14:09:54;99490.16;;;22.25
42197;BMP280;27866;48.146;17.098;2023-04-06T14:14:06;99495.22;;;22.12
42197;BMP280;27866;48.146;17.098;2023-04-06T14:18:17;99512.50;;;21.65
42197;BMP280;27866;48.146;17.098;2023-04-06T14:22:29;99496.47;;;21.74
42197;BMP280;27866;48.146;17.098;2023-04-06T14:26:40;99490.84;;;22.33
42197;BMP280;27866;48.146;17.098;2023-04-06T14:30:55;99486.63;;;22.46
42197;BMP280;27866;48.146;17.098;2023-04-06T14:35:06;99483.09;;;20.96
42197;BMP280;27866;48.146;17.098;2023-04-06T14:39:18;99496.06;;;19.55
42197;BMP280;27866;48.146;17.098;2023-04-06T14:43:29;99493.16;;;18.64
42197;BMP280;27866;48.146;17.098;2023-04-06T14:47:41;99511.06;;;18.36
42197;BMP280;27866;48.146;17.098;2023-04-06T14:51:52;99507.28;;;18.38
42197;BMP280;27866;48.146;17.098;2023-04-06T14:56:04;99496.78;;;18.30
42197;BMP280;27866;48.146;17.098;2023-04-06T15:00:16;99479.88;;;18.65
42197;BMP280;27866;48.146;17.098;2023-04-06T15:04:28;99493.13;;;18.24
42197;BMP280;27866;48.146;17.098;2023-04-06T15:08:41;99491.53;;;17.49
42197;BMP280;27866;48.146;17.098;2023-04-06T15:12:52;99507.88;;;17.09
42197;BMP280;27866;48.146;17.098;2023-04-06T15:17:03;99495.19;;;16.71
42197;BMP280;27866;48.146;17.098;2023-04-06T15:21:15;99499.88;;;16.51
42197;BMP280;27866;48.146;17.098;2023-04-06T15:25:26;99490.97;;;16.18
42197;BMP280;27866;48.146;17.098;2023-04-06T15:29:37;99495.09;;;16.20
42197;BMP280;27866;48.146;17.098;2023-04-06T15:33:49;99503.03;;;15.93
42197;BMP280;27866;48.146;17.098;2023-04-06T15:38:00;99503.81;;;15.58
42197;BMP280;27866;48.146;17.098;2023-04-06T15:42:12;99509.75;;;15.23
42197;BMP280;27866;48.146;17.098;2023-04-06T15:46:23;99514.16;;;14.86
42197;BMP280;27866;48.146;17.098;2023-04-06T15:50:36;99509.47;;;14.71
42197;BMP280;27866;48.146;17.098;2023-04-06T15:54:47;99504.78;;;14.65
42197;BMP280;27866;48.146;17.098;2023-04-06T15:58:59;99512.28;;;14.49
42197;BMP280;27866;48.146;17.098;2023-04-06T16:03:10;99509.69;;;14.49
42197;BMP280;27866;48.146;17.098;2023-04-06T16:07:21;99503.78;;;14.48
42197;BMP280;27866;48.146;17.098;2023-04-06T16:11:33;99506.91;;;14.33
42197;BMP280;27866;48.146;17.098;2023-04-06T16:15:48;99509.97;;;14.37
42197;BMP280;27866;48.146;17.098;2023-04-06T16:19:59;99517.97;;;14.63
42197;BMP280;27866;48.146;17.098;2023-04-06T16:24:11;99523.88;;;14.27
42197;BMP280;27866;48.146;17.098;2023-04-06T16:28:22;99531.53;;;14.20
42197;BMP280;27866;48.146;17.098;2023-04-06T16:32:35;99533.31;;;14.19
42197;BMP280;27866;48.146;17.098;2023-04-06T16:36:46;99536.16;;;14.07
42197;BMP280;27866;48.146;17.098;2023-04-06T16:41:01;99524.69;;;13.70
42197;BMP280;27866;48.146;17.098;2023-04-06T16:45:13;99538.34;;;13.62
42197;BMP280;27866;48.146;17.098;2023-04-06T16:49:25;99541.22;;;13.60
42197;BMP280;27866;48.146;17.098;2023-04-06T16:53:37;99548.88;;;13.41
42197;BMP280;27866;48.146;17.098;2023-04-06T16:57:49;99542.06;;;13.10
42197;BMP280;27866;48.146;17.098;2023-04-06T17:02:00;99548.09;;;13.10
42197;BMP280;27866;48.146;17.098;2023-04-06T17:06:13;99547.47;;;12.98
42197;BMP280;27866;48.146;17.098;2023-04-06T17:10:24;99547.06;;;13.02
42197;BMP280;27866;48.146;17.098;2023-04-06T17:14:35;99553.88;;;12.83
42197;BMP280;27866;48.146;17.098;2023-04-06T17:18:47;99558.75;;;12.77
42197;BMP280;27866;48.146;17.098;2023-04-06T17:22:59;99557.31;;;12.84
42197;BMP280;27866;48.146;17.098;2023-04-06T17:27:10;99552.47;;;12.79
42197;BMP280;27866;48.146;17.098;2023-04-06T17:31:21;99562.19;;;12.67
42197;BMP280;27866;48.146;17.098;2023-04-06T17:35:32;99563.03;;;12.67
42197;BMP280;27866;48.146;17.098;2023-04-06T17:39:44;99574.13;;;12.69
42197;BMP280;27866;48.146;17.098;2023-04-06T17:43:55;99574.00;;;12.60
42197;BMP280;27866;48.146;17.098;2023-04-06T17:48:06;99576.84;;;12.57
42197;BMP280;27866;48.146;17.098;2023-04-06T17:52:18;99582.03;;;12.57
42197;BMP280;27866;48.146;17.098;2023-04-06T17:56:29;99587.00;;;12.39
42197;BMP280;27866;48.146;17.098;2023-04-06T18:00:40;99586.06;;;12.29
42197;BMP280;27866;48.146;17.098;2023-04-06T18:04:52;99597.97;;;12.21
42197;BMP280;27866;48.146;17.098;2023-04-06T18:09:05;99603.63;;;12.04
42197;BMP280;27866;48.146;17.098;2023-04-06T18:13:16;99605.41;;;12.04
42197;BMP280;27866;48.146;17.098;2023-04-06T18:17:28;99607.53;;;12.10
42197;BMP280;27866;48.146;17.098;2023-04-06T18:21:40;99607.88;;;12.05
42197;BMP280;27866;48.146;17.098;2023-04-06T18:25:51;99607.75;;;11.96
42197;BMP280;27866;48.146;17.098;2023-04-06T18:30:03;99615.28;;;11.88
42197;BMP280;27866;48.146;17.098;2023-04-06T18:34:16;99617.88;;;11.88
42197;BMP280;27866;48.146;17.098;2023-04-06T18:38:27;99624.28;;;11.95
42197;BMP280;27866;48.146;17.098;2023-04-06T18:42:40;99619.75;;;11.87
42197;BMP280;27866;48.146;17.098;2023-04-06T18:46:51;99629.22;;;11.88
42197;BMP280;27866;48.146;17.098;2023-04-06T18:51:02;99628.50;;;11.86
42197;BMP280;27866;48.146;17.098;2023-04-06T18:55:14;99635.31;;;11.76
42197;BMP280;27866;48.146;17.098;2023-04-06T18:59:25;99629.22;;;11.88
42197;BMP280;27866;48.146;17.098;2023-04-06T19:03:43;99637.72;;;11.89
42197;BMP280;27866;48.146;17.098;2023-04-06T19:07:54;99645.28;;;12.03
42197;BMP280;27866;48.146;17.098;2023-04-06T19:12:05;99643.88;;;11.99
42197;BMP280;27866;48.146;17.098;2023-04-06T19:16:17;99643.50;;;12.03
42197;BMP280;27866;48.146;17.098;2023-04-06T19:20:32;99642.19;;;11.98
42197;BMP280;27866;48.146;17.098;2023-04-06T19:24:47;99636.78;;;12.01
42197;BMP280;27866;48.146;17.098;2023-04-06T19:28:59;99639.38;;;12.01
42197;BMP280;27866;48.146;17.098;2023-04-06T19:33:10;99640.25;;;11.79
42197;BMP280;27866;48.146;17.098;2023-04-06T19:37:22;99640.03;;;11.71
42197;BMP280;27866;48.146;17.098;2023-04-06T19:41:33;99643.44;;;11.72
42197;BMP280;27866;48.146;17.098;2023-04-06T19:45:44;99643.81;;;11.78
42197;BMP280;27866;48.146;17.098;2023-04-06T19:49:56;99646.41;;;11.67
42197;BMP280;27866;48.146;17.098;2023-04-06T19:54:07;99641.03;;;11.58
42197;BMP280;27866;48.146;17.098;2023-04-06T19:58:19;99652.75;;;11.63
42197;BMP280;27866;48.146;17.098;2023-04-06T20:02:31;99655.06;;;11.56
42197;BMP280;27866;48.146;17.098;2023-04-06T20:06:42;99651.94;;;11.40
42197;BMP280;27866;48.146;17.098;2023-04-06T20:11:03;99647.34;;;11.44
42197;BMP280;27866;48.146;17.098;2023-04-06T20:15:15;99647.94;;;11.47
42197;BMP280;27866;48.146;17.098;2023-04-06T20:19:26;99645.81;;;11.41
42197;BMP280;27866;48.146;17.098;2023-04-06T20:23:37;99659.47;;;11.43
42197;BMP280;27866;48.146;17.098;2023-04-06T20:27:48;99662.00;;;11.22
42197;BMP280;27866;48.146;17.098;2023-04-06T20:32:00;99663.28;;;11.04
42197;BMP280;27866;48.146;17.098;2023-04-06T20:36:11;99658.09;;;11.04
42197;BMP280;27866;48.146;17.098;2023-04-06T20:40:23;99658.69;;;11.08
42197;BMP280;27866;48.146;17.098;2023-04-06T20:44:34;99653.31;;;11.11
42197;BMP280;27866;48.146;17.098;2023-04-06T20:48:45;99653.34;;;10.99
42197;BMP280;27866;48.146;17.098;2023-04-06T20:52:57;99642.28;;;10.97
42197;BMP280;27866;48.146;17.098;2023-04-06T20:57:09;99638.25;;;10.93
42197;BMP280;27866;48.146;17.098;2023-04-06T21:01:20;99640.97;;;10.79
42197;BMP280;27866;48.146;17.098;2023-04-06T21:05:33;99631.28;;;10.71
42197;BMP280;27866;48.146;17.098;2023-04-06T21:09:44;99625.94;;;10.61
42197;BMP280;27866;48.146;17.098;2023-04-06T21:13:55;99632.75;;;10.62
42197;BMP280;27866;48.146;17.098;2023-04-06T21:18:07;99630.63;;;10.79
42197;BMP280;27866;48.146;17.098;2023-04-06T21:22:18;99632.06;;;10.83
42197;BMP280;27866;48.146;17.098;2023-04-06T21:26:29;99646.03;;;10.93
42197;BMP280;27866;48.146;17.098;2023-04-06T21:30:41;99632.63;;;10.99
42197;BMP280;27866;48.146;17.098;2023-04-06T21:34:52;99626.88;;;11.06
42197;BMP280;27866;48.146;17.098;2023-04-06T21:39:04;99624.41;;;11.04
42197;BMP280;27866;48.146;17.098;2023-04-06T21:43:16;99625.84;;;10.86
42197;BMP280;27866;48.146;17.098;2023-04-06T21:47:27;99621.88;;;10.92
42197;BMP280;27866;48.146;17.098;2023-04-06T21:51:38;99619.84;;;10.85
42197;BMP280;27866;48.146;17.098;2023-04-06T21:55:49;99617.13;;;10.86
42197;BMP280;27866;48.146;17.098;2023-04-06T22:00:03;99612.00;;;10.74
42197;BMP280;27866;48.146;17.098;2023-04-06T22:04:44;99609.59;;;10.49
42197;BMP280;27866;48.146;17.098;2023-04-06T22:08:56;99613.44;;;10.31
42197;BMP280;27866;48.146;17.098;2023-04-06T22:13:08;99616.28;;;10.16
42197;BMP280;27866;48.146;17.098;2023-04-06T22:17:19;99607.59;;;10.17
42197;BMP280;27866;48.146;17.098;2023-04-06T22:21:30;99592.97;;;10.28
42197;BMP280;27866;48.146;17.098;2023-04-06T22:25:42;99605.00;;;10.29
42197;BMP280;27866;48.146;17.098;2023-04-06T22:29:53;99599.28;;;10.37
42197;BMP280;27866;48.146;17.098;2023-04-06T22:34:04;99601.34;;;10.32
42197;BMP280;27866;48.146;17.098;2023-04-06T22:38:15;99599.91;;;10.28
42197;BMP280;27866;48.146;17.098;2023-04-06T22:42:27;99601.56;;;10.29
42197;BMP280;27866;48.146;17.098;2023-04-06T22:46:38;99601.03;;;10.24
42197;BMP280;27866;48.146;17.098;2023-04-06T22:50:49;99605.13;;;10.16
42197;BMP280;27866;48.146;17.098;2023-04-06T22:55:00;99601.63;;;10.05
42197;BMP280;27866;48.146;17.098;2023-04-06T22:59:11;99591.66;;;10.11
42197;BMP280;27866;48.146;17.098;2023-04-06T23:03:23;99586.25;;;10.26
42197;BMP280;27866;48.146;17.098;2023-04-06T23:07:34;99577.03;;;10.22
42197;BMP280;27866;48.146;17.098;2023-04-06T23:11:45;99580.56;;;10.21
42197;BMP280;27866;48.146;17.098;2023-04-06T23:15:57;99575.16;;;10.24
42197;BMP280;27866;48.146;17.098;2023-04-06T23:20:08;99577.69;;;10.13
42197;BMP280;27866;48.146;17.098;2023-04-06T23:24:19;99570.53;;;10.17
42197;BMP280;27866;48.146;17.098;2023-04-06T23:28:31;99568.25;;;10.13
42197;BMP280;27866;48.146;17.098;2023-04-06T23:32:42;99559.28;;;10.18
42197;BMP280;27866;48.146;17.098;2023-04-06T23:36:53;99562.38;;;10.11
42197;BMP280;27866;48.146;17.098;2023-04-06T23:41:04;99572.03;;;10.09
42197;BMP280;27866;48.146;17.098;2023-04-06T23:45:16;99564.69;;;10.03
42197;BMP280;27866;48.146;17.098;2023-04-06T23:49:27;99560.44;;;10.02
42197;BMP280;27866;48.146;17.098;2023-04-06T23:53:38;99559.81;;;9.86
42197;BMP280;27866;48.146;17.098;2023-04-06T23:57:50;99557.75;;;9.91
